Time;durP1;ratioP1;P1;durP2;ratioP2;P2;SDS_P1;SDS_P2;PMS_P1;PMS_P2;Temp;Humidity;BMP_temperature;BMP_pressure;BME280_temperature;BME280_humidity;BME280_pressure;Samples;Min_cycle;Max_cycle;Signal;HPM_P1;HPM_P2
2023/03/02 00:01:44;;;;;;;10.80;7.30;;;4.40;99.90;;;;;;5047239;28;20238;-77
2023/03/02 00:04:19;;;;;;;10.27;7.30;;;4.40;99.90;;;;;;5030957;28;20463;-76
2023/03/02 00:06:47;;;;;;;12.53;8.00;;;4.50;99.90;;;;;;5050444;28;20449;-77
2023/03/02 00:09:13;;;;;;;12.10;7.47;;;4.50;99.90;;;;;;5049033;28;20838;-77
2023/03/02 00:11:38;;;;;;;14.87;6.70;;;4.60;99.90;;;;;;5049271;28;20445;-78
2023/03/02 00:14:05;;;;;;;15.03;8.23;;;4.60;99.90;;;;;;5048363;28;20327;-77
2023/03/02 00:16:31;;;;;;;14.73;7.37;;;4.50;99.90;;;;;;5050514;28;20190;-77
2023/03/02 00:18:57;;;;;;;10.50;7.17;;;4.40;99.90;;;;;;5051261;28;20433;-76
2023/03/02 00:21:23;;;;;;;9.50;6.70;;;4.40;99.90;;;;;;5050962;28;20196;-77
2023/03/02 00:23:50;;;;;;;14.20;8.10;;;4.30;99.90;;;;;;5051451;28;20311;-76
2023/03/02 00:26:16;;;;;;;11.00;7.40;;;4.30;99.90;;;;;;5051648;28;20948;-74
2023/03/02 00:28:42;;;;;;;14.47;8.50;;;4.10;99.90;;;;;;5050362;28;20440;-73
2023/03/02 00:31:07;;;;;;;12.07;7.90;;;4.10;99.90;;;;;;5051051;28;20500;-73
2023/03/02 00:33:33;;;;;;;12.93;7.10;;;4.00;99.90;;;;;;5051651;28;20188;-73
2023/03/02 00:36:00;;;;;;;11.70;7.40;;;4.00;99.90;;;;;;5051491;28;20311;-73
2023/03/02 00:38:26;;;;;;;8.83;6.60;;;4.10;99.90;;;;;;5051320;28;20433;-73
2023/03/02 00:40:52;;;;;;;8.83;7.33;;;4.10;99.90;;;;;;5051353;28;20444;-73
2023/03/02 00:43:18;;;;;;;10.20;7.07;;;4.00;99.90;;;;;;5051228;28;20541;-73
2023/03/02 00:45:43;;;;;;;11.80;7.67;;;3.90;99.90;;;;;;5051128;28;20538;-74
2023/03/02 00:48:09;;;;;;;11.83;8.13;;;3.90;99.90;;;;;;5051170;28;20653;-73
2023/03/02 00:50:39;;;;;;;12.20;7.03;;;3.90;99.90;;;;;;5051370;28;20277;-74
2023/03/02 00:53:07;;;;;;;9.80;7.23;;;3.90;99.90;;;;;;5051086;28;20717;-74
2023/03/02 00:55:32;;;;;;;11.23;7.90;;;3.90;99.90;;;;;;5050973;28;20564;-73
2023/03/02 00:57:58;;;;;;;10.87;7.30;;;3.80;99.90;;;;;;5050924;28;21298;-74
2023/03/02 01:00:26;;;;;;;8.43;6.20;;;3.80;99.90;;;;;;5051817;28;20255;-73
2023/03/02 01:02:51;;;;;;;9.83;7.30;;;3.80;99.90;;;;;;5051089;28;20194;-73
2023/03/02 01:05:17;;;;;;;12.90;7.57;;;3.80;99.90;;;;;;5053602;28;20471;-73
2023/03/02 01:07:43;;;;;;;11.87;8.00;;;3.70;99.90;;;;;;5054907;28;20182;-74
2023/03/02 01:10:09;;;;;;;13.13;7.73;;;3.80;99.90;;;;;;5054715;28;20239;-73
2023/03/02 01:12:35;;;;;;;12.80;7.70;;;3.70;99.90;;;;;;5054944;28;20187;-73
2023/03/02 01:15:00;;;;;;;15.23;8.90;;;3.70;99.90;;;;;;5054158;28;20535;-72
2023/03/02 01:17:26;;;;;;;9.57;7.27;;;3.70;99.90;;;;;;5054969;28;20194;-73
2023/03/02 01:19:52;;;;;;;14.17;8.00;;;3.70;99.90;;;;;;5054867;28;20255;-72
2023/03/02 01:22:19;;;;;;;10.30;6.70;;;3.80;99.90;;;;;;5054561;28;20195;-72
2023/03/02 01:24:45;;;;;;;13.43;8.00;;;3.80;99.90;;;;;;5054305;28;20494;-74
2023/03/02 01:27:10;;;;;;;10.50;7.47;;;3.80;99.90;;;;;;5054816;28;20433;-74
2023/03/02 01:29:37;;;;;;;11.00;8.57;;;3.80;99.90;;;;;;5054615;28;20222;-74
2023/03/02 01:32:03;;;;;;;11.37;7.60;;;3.70;99.90;;;;;;5054365;28;20229;-75
2023/03/02 01:34:28;;;;;;;9.57;7.20;;;3.70;99.90;;;;;;5054356;28;20469;-73
2023/03/02 01:36:54;;;;;;;8.40;6.50;;;3.70;99.90;;;;;;5054256;28;20532;-73
2023/03/02 01:39:21;;;;;;;11.40;7.43;;;3.70;99.90;;;;;;5054225;28;20525;-73
2023/03/02 01:41:48;;;;;;;10.80;7.90;;;3.60;99.90;;;;;;5054309;28;20557;-73
2023/03/02 01:44:41;;;;;;;10.23;7.53;;;3.60;99.90;;;;;;5054455;28;20428;-73
2023/03/02 01:47:23;;;;;;;15.00;8.07;;;3.60;99.90;;;;;;5054076;28;20495;-73
2023/03/02 01:49:56;;;;;;;13.73;7.37;;;3.60;99.90;;;;;;5053257;28;20779;-73
2023/03/02 01:52:23;;;;;;;11.07;8.23;;;3.60;99.90;;;;;;5054040;28;20838;-73
2023/03/02 01:54:50;;;;;;;14.13;7.57;;;3.60;99.90;;;;;;5053726;28;20460;-73
2023/03/02 01:57:24;;;;;;;11.10;7.90;;;3.60;99.90;;;;;;5052826;28;20429;-72
2023/03/02 01:59:56;;;;;;;11.90;7.50;;;3.70;99.90;;;;;;5054163;28;20760;-72
2023/03/02 02:02:22;;;;;;;11.80;7.23;;;3.60;99.90;;;;;;5053995;28;20791;-72
2023/03/02 02:04:49;;;;;;;12.83;7.30;;;3.60;99.90;;;;;;5053818;28;20416;-71
2023/03/02 02:07:15;;;;;;;12.43;7.80;;;3.60;99.90;;;;;;5054118;28;20190;-72
2023/03/02 02:09:47;;;;;;;10.77;8.03;;;3.60;99.90;;;;;;5053668;28;20417;-72
2023/03/02 02:12:15;;;;;;;11.30;7.43;;;3.50;99.90;;;;;;5054061;28;20433;-72
2023/03/02 02:14:41;;;;;;;12.77;7.63;;;3.60;99.90;;;;;;5053683;28;20471;-72
2023/03/02 02:17:07;;;;;;;9.97;7.73;;;3.60;99.90;;;;;;5051914;28;20539;-73
2023/03/02 02:19:55;;;;;;;9.70;7.60;;;3.60;99.90;;;;;;5039704;28;20464;-72
2023/03/02 02:23:02;;;;;;;14.07;7.93;;;3.60;99.90;;;;;;5050776;28;20427;-72
2023/03/02 02:25:51;;;;;;;10.60;7.57;;;3.50;99.90;;;;;;4995399;28;20511;-72
2023/03/02 02:28:27;;;;;;;10.00;7.20;;;3.40;99.90;;;;;;5052227;28;20421;-72
2023/03/02 02:31:14;;;;;;;12.30;6.90;;;3.40;99.90;;;;;;5053208;28;20436;-72
2023/03/02 02:33:43;;;;;;;12.50;8.37;;;3.40;99.90;;;;;;5035813;28;20423;-72
2023/03/02 02:36:15;;;;;;;10.83;8.33;;;3.60;99.90;;;;;;5053959;28;20476;-72
2023/03/02 02:38:44;;;;;;;10.10;8.23;;;3.70;99.90;;;;;;5052970;28;20456;-72
2023/03/02 02:41:16;;;;;;;11.23;7.90;;;3.70;99.90;;;;;;5053848;28;20433;-72
2023/03/02 02:43:42;;;;;;;10.63;6.80;;;3.70;99.90;;;;;;5053837;28;20423;-72
2023/03/02 02:46:09;;;;;;;11.50;8.27;;;3.70;99.90;;;;;;5036243;28;20474;-77
2023/03/02 02:48:35;;;;;;;11.50;7.77;;;3.70;99.90;;;;;;5051728;28;20178;-75
2023/03/02 02:51:01;;;;;;;14.03;6.90;;;3.60;99.90;;;;;;5050277;28;20454;-77
2023/03/02 02:54:00;;;;;;;9.20;7.47;;;3.40;99.90;;;;;;5051616;28;20268;-81
2023/03/02 02:56:35;;;;;;;10.63;7.53;;;3.40;99.90;;;;;;5052839;28;20441;-81
2023/03/02 02:59:19;;;;;;;13.20;7.67;;;3.40;99.90;;;;;;5051363;28;20444;-75
2023/03/02 03:01:46;;;;;;;12.70;7.90;;;3.30;99.90;;;;;;5051230;28;20940;-77
2023/03/02 03:04:17;;;;;;;10.27;7.00;;;3.20;99.90;;;;;;5049052;28;20502;-76
2023/03/02 03:07:04;;;;;;;11.77;7.67;;;3.10;99.90;;;;;;5052409;28;20514;-80
2023/03/02 03:09:30;;;;;;;12.00;8.03;;;3.10;99.90;;;;;;5052506;28;20441;-80
2023/03/02 03:12:02;;;;;;;13.27;8.20;;;3.00;99.90;;;;;;5051934;28;20457;-80
2023/03/02 03:14:35;;;;;;;11.90;7.97;;;3.00;99.90;;;;;;5051077;28;20516;-88
2023/03/02 03:17:01;;;;;;;12.67;7.30;;;3.00;99.90;;;;;;5053343;28;20509;-85
2023/03/02 03:19:29;;;;;;;13.40;7.60;;;2.90;99.90;;;;;;5052878;28;20969;-83
2023/03/02 03:21:57;;;;;;;10.17;7.73;;;2.90;99.90;;;;;;5053058;28;20340;-83
2023/03/02 05:31:34;;;;;;;9.33;7.20;;;2.90;99.90;;;;;;5640082;22;20553;-76
2023/03/02 05:34:01;;;;;;;11.83;7.00;;;2.90;99.90;;;;;;5052479;28;20954;-74
2023/03/02 05:36:27;;;;;;;11.43;7.33;;;2.90;99.90;;;;;;5049684;28;21099;-73
2023/03/02 05:38:52;;;;;;;10.33;6.70;;;2.90;99.90;;;;;;5044219;28;20480;-77
2023/03/02 05:41:18;;;;;;;12.27;6.50;;;2.90;99.90;;;;;;5038114;28;20179;-76
2023/03/02 05:43:43;;;;;;;12.90;7.10;;;2.90;99.90;;;;;;5048325;28;20489;-76
2023/03/02 05:46:09;;;;;;;10.27;5.80;;;3.00;99.90;;;;;;5045593;28;20178;-75
2023/03/02 05:48:35;;;;;;;8.70;6.83;;;2.90;99.90;;;;;;5040614;28;20195;-75
2023/03/02 05:51:00;;;;;;;9.77;7.20;;;2.90;99.90;;;;;;5044776;28;20561;-74
2023/03/02 05:53:26;;;;;;;12.50;7.90;;;3.00;99.90;;;;;;5040110;28;20226;-74
2023/03/02 05:55:52;;;;;;;8.97;6.70;;;3.00;99.90;;;;;;5051285;28;20195;-73
2023/03/02 05:58:18;;;;;;;12.93;7.20;;;3.00;99.90;;;;;;5048649;28;20257;-73
2023/03/02 06:00:45;;;;;;;10.63;7.23;;;3.20;99.90;;;;;;5048038;28;20173;-75
2023/03/02 06:03:11;;;;;;;8.97;6.40;;;3.30;99.90;;;;;;5051702;28;20436;-79
2023/03/02 06:05:37;;;;;;;10.93;6.77;;;3.20;99.90;;;;;;5038708;28;20433;-74
2023/03/02 06:08:03;;;;;;;11.07;6.90;;;3.20;99.90;;;;;;5036102;28;20187;-74
2023/03/02 06:10:29;;;;;;;9.50;7.43;;;3.00;99.90;;;;;;5041127;28;20440;-74
2023/03/02 06:12:56;;;;;;;7.70;6.13;;;2.90;99.90;;;;;;5048642;28;20425;-74
2023/03/02 06:15:22;;;;;;;13.10;7.60;;;2.90;99.90;;;;;;5047364;28;20272;-74
2023/03/02 06:17:48;;;;;;;11.03;6.80;;;2.80;99.90;;;;;;5050435;28;20428;-74
2023/03/02 06:20:14;;;;;;;13.83;6.27;;;2.80;99.90;;;;;;5052059;28;20437;-75
2023/03/02 06:22:44;;;;;;;9.47;6.37;;;2.80;99.90;;;;;;5047996;28;20421;-74
2023/03/02 06:25:15;;;;;;;17.93;7.93;;;2.80;99.90;;;;;;5048043;28;20449;-75
2023/03/02 06:27:41;;;;;;;10.97;7.40;;;2.80;99.90;;;;;;5051799;28;20763;-75
2023/03/02 06:30:10;;;;;;;10.63;7.40;;;2.80;99.90;;;;;;5050485;28;20447;-75
2023/03/02 06:32:35;;;;;;;11.97;7.70;;;2.80;99.90;;;;;;5047144;28;20480;-74
2023/03/02 06:35:02;;;;;;;13.47;7.30;;;2.80;99.90;;;;;;5050067;28;20840;-74
2023/03/02 06:37:28;;;;;;;11.20;7.03;;;2.80;99.90;;;;;;5049714;28;20182;-73
2023/03/02 06:39:55;;;;;;;15.20;7.70;;;2.80;99.90;;;;;;5048493;28;20472;-74
2023/03/02 06:42:21;;;;;;;19.00;7.80;;;2.80;99.90;;;;;;5045522;28;20430;-74
2023/03/02 06:44:47;;;;;;;14.30;7.40;;;2.90;99.90;;;;;;5039676;28;20424;-74
2023/03/02 06:47:13;;;;;;;9.60;7.63;;;2.90;99.90;;;;;;5034787;28;20457;-73
2023/03/02 06:49:39;;;;;;;17.00;7.13;;;2.90;99.90;;;;;;5036107;28;20185;-74
2023/03/02 06:52:06;;;;;;;9.30;7.83;;;2.90;99.90;;;;;;5041916;28;20197;-74
2023/03/02 06:54:32;;;;;;;12.00;8.50;;;3.00;99.90;;;;;;5047053;28;20947;-74
2023/03/02 06:56:57;;;;;;;12.30;7.77;;;3.00;99.90;;;;;;5047321;28;20928;-74
2023/03/02 06:59:23;;;;;;;15.03;7.87;;;3.00;99.90;;;;;;5050787;28;20432;-74
2023/03/02 07:01:49;;;;;;;10.47;7.70;;;3.10;99.90;;;;;;5049154;28;20249;-74
2023/03/02 07:04:15;;;;;;;12.40;9.00;;;3.10;99.90;;;;;;5045041;28;20544;-74
2023/03/02 07:06:41;;;;;;;12.10;7.90;;;3.10;99.90;;;;;;5047790;28;20421;-74
2023/03/02 07:09:06;;;;;;;10.70;8.30;;;3.10;99.90;;;;;;5050034;28;20424;-76
2023/03/02 07:11:32;;;;;;;11.40;8.33;;;3.10;99.90;;;;;;5049499;28;20479;-74
2023/03/02 07:14:00;;;;;;;17.83;7.70;;;3.20;99.90;;;;;;5047939;28;20213;-75
2023/03/02 07:16:26;;;;;;;10.43;6.67;;;3.30;99.90;;;;;;5050274;28;20213;-75
2023/03/02 07:18:52;;;;;;;15.33;7.70;;;3.40;99.90;;;;;;5045785;28;20757;-74
2023/03/02 07:21:17;;;;;;;11.80;8.27;;;3.40;99.90;;;;;;5046745;28;20202;-72
2023/03/02 07:23:43;;;;;;;19.27;7.70;;;3.50;99.90;;;;;;5050144;28;20178;-72
2023/03/02 07:26:09;;;;;;;11.80;7.70;;;3.50;99.90;;;;;;5049386;28;20187;-72
2023/03/02 07:28:38;;;;;;;12.00;8.00;;;3.60;99.90;;;;;;5042967;28;20171;-71
2023/03/02 07:31:04;;;;;;;9.57;7.77;;;3.50;99.90;;;;;;5040260;28;20585;-72
2023/03/02 07:33:30;;;;;;;17.50;9.00;;;3.70;99.90;;;;;;5045644;28;20437;-73
2023/03/02 07:35:55;;;;;;;17.77;8.33;;;3.80;99.90;;;;;;5035901;28;20486;-72
2023/03/02 07:38:21;;;;;;;13.43;9.20;;;3.90;99.90;;;;;;5034425;28;20433;-72
2023/03/02 07:40:47;;;;;;;10.83;6.70;;;4.00;99.90;;;;;;5040188;28;20191;-72
2023/03/02 07:43:12;;;;;;;15.60;7.40;;;4.20;99.90;;;;;;5045937;28;20232;-73
2023/03/02 07:45:38;;;;;;;21.90;7.70;;;4.30;99.90;;;;;;5046640;28;20184;-72
2023/03/02 07:48:04;;;;;;;12.40;8.60;;;4.50;99.90;;;;;;5049479;28;20572;-72
2023/03/02 07:50:30;;;;;;;14.10;7.70;;;4.60;99.90;;;;;;5049737;28;20661;-73
2023/03/02 07:52:55;;;;;;;10.10;7.40;;;4.80;99.90;;;;;;5050598;28;20431;-73
2023/03/02 07:55:21;;;;;;;10.20;7.97;;;5.00;99.90;;;;;;5048600;28;20956;-72
2023/03/02 07:57:47;;;;;;;21.70;8.63;;;5.10;99.90;;;;;;5048720;28;20175;-73
2023/03/02 08:00:13;;;;;;;14.00;7.77;;;5.40;98.90;;;;;;5046799;28;20175;-72
2023/03/02 08:02:40;;;;;;;9.30;7.60;;;5.70;97.30;;;;;;5046865;28;20216;-72
2023/03/02 08:05:06;;;;;;;10.23;7.63;;;5.80;95.60;;;;;;5049114;28;20441;-73
2023/03/02 08:07:32;;;;;;;9.33;6.70;;;6.10;95.30;;;;;;5047678;28;20429;-74
2023/03/02 08:09:59;;;;;;;8.67;7.20;;;6.20;94.10;;;;;;5036646;28;20544;-72
2023/03/02 08:12:25;;;;;;;13.67;8.30;;;6.40;92.40;;;;;;5048451;28;20983;-72
2023/03/02 08:14:51;;;;;;;7.40;6.60;;;6.50;92.30;;;;;;5048941;28;20465;-73
2023/03/02 08:17:17;;;;;;;15.87;8.43;;;6.60;92.30;;;;;;5042151;28;20533;-73
2023/03/02 08:19:42;;;;;;;10.10;8.30;;;6.80;91.00;;;;;;5034502;28;20190;-73
2023/03/02 08:22:08;;;;;;;9.50;8.00;;;6.80;90.70;;;;;;5040676;28;20198;-74
2023/03/02 08:24:33;;;;;;;9.53;7.50;;;6.90;90.20;;;;;;5044314;28;20184;-78
2023/03/02 08:27:01;;;;;;;12.63;8.20;;;6.80;88.50;;;;;;5032933;28;20179;-77
2023/03/02 08:29:26;;;;;;;9.53;6.93;;;6.80;88.60;;;;;;5037578;28;20191;-74
2023/03/02 08:31:52;;;;;;;12.87;8.00;;;6.60;88.30;;;;;;5043301;28;20544;-73
2023/03/02 08:34:18;;;;;;;15.07;7.03;;;6.50;88.70;;;;;;5032265;28;20650;-73
2023/03/02 08:36:43;;;;;;;10.50;6.43;;;6.50;88.70;;;;;;5047120;28;20215;-73
2023/03/02 08:39:10;;;;;;;11.97;8.07;;;6.40;89.60;;;;;;5040960;28;20270;-73
2023/03/02 08:41:35;;;;;;;13.60;7.47;;;6.40;90.70;;;;;;5035499;28;20279;-72
2023/03/02 08:44:01;;;;;;;12.20;7.50;;;6.50;91.20;;;;;;5034465;28;20992;-73
2023/03/02 08:46:26;;;;;;;10.80;7.57;;;6.70;88.90;;;;;;5040707;28;20664;-73
2023/03/02 08:48:52;;;;;;;10.10;6.60;;;6.80;88.50;;;;;;5046507;28;20262;-72
2023/03/02 08:51:23;;;;;;;14.80;7.17;;;6.80;85.50;;;;;;5050873;28;20336;-72
2023/03/02 08:53:51;;;;;;;9.10;6.60;;;6.70;86.00;;;;;;5045437;28;20183;-72
2023/03/02 08:56:23;;;;;;;11.53;8.50;;;6.70;85.80;;;;;;5031729;28;20548;-72
2023/03/02 08:58:50;;;;;;;20.50;7.30;;;6.60;87.20;;;;;;5049585;28;20479;-72
2023/03/02 09:01:18;;;;;;;11.63;8.47;;;6.50;89.00;;;;;;5047273;28;20441;-72
2023/03/02 09:03:44;;;;;;;10.73;7.77;;;6.50;90.80;;;;;;5044825;28;20430;-74
2023/03/02 09:06:10;;;;;;;11.40;7.63;;;6.70;89.40;;;;;;5030860;28;20536;-74
2023/03/02 09:08:35;;;;;;;11.20;6.70;;;6.90;89.50;;;;;;5043010;28;20191;-74
2023/03/02 09:11:01;;;;;;;12.13;7.70;;;7.00;87.10;;;;;;5049851;28;20980;-74
2023/03/02 09:13:26;;;;;;;10.50;8.07;;;7.30;85.20;;;;;;5049411;28;20194;-74
2023/03/02 09:15:52;;;;;;;10.90;7.27;;;7.30;85.10;;;;;;5043979;28;20218;-74
2023/03/02 09:18:17;;;;;;;9.27;7.90;;;7.50;83.40;;;;;;5048950;28;20626;-75
2023/03/02 09:20:43;;;;;;;9.90;7.83;;;7.60;80.40;;;;;;5046980;28;20491;-84
2023/03/02 09:23:11;;;;;;;14.30;8.67;;;7.40;83.30;;;;;;5036482;28;20769;-78
2023/03/02 09:25:36;;;;;;;10.23;7.30;;;7.50;86.40;;;;;;5036458;28;20198;-77
2023/03/02 09:28:02;;;;;;;13.97;8.07;;;7.70;79.70;;;;;;5035447;28;20437;-76
2023/03/02 09:30:27;;;;;;;10.83;6.93;;;7.80;78.60;;;;;;5049804;28;20187;-78
2023/03/02 09:32:53;;;;;;;11.70;7.60;;;7.80;77.50;;;;;;5036578;28;20557;-79
2023/03/02 09:35:19;;;;;;;9.47;7.33;;;7.90;76.70;;;;;;5042161;28;20291;-78
2023/03/02 09:37:44;;;;;;;9.57;6.20;;;7.80;76.20;;;;;;5048887;28;20185;-79
2023/03/02 09:40:19;;;;;;;8.10;6.10;;;7.90;77.50;;;;;;5038249;28;20187;-79
2023/03/02 09:43:16;;;;;;;12.23;6.63;;;7.90;78.70;;;;;;5042229;28;20550;-79
2023/03/02 09:45:54;;;;;;;9.77;7.03;;;7.90;78.10;;;;;;5044348;28;20422;-77
2023/03/02 09:48:34;;;;;;;11.17;7.43;;;8.10;75.10;;;;;;5035884;28;20815;-77
2023/03/02 09:51:21;;;;;;;13.03;6.73;;;8.10;73.90;;;;;;5046588;28;20429;-77
2023/03/02 09:54:16;;;;;;;11.40;6.70;;;8.20;74.20;;;;;;5050763;28;20901;-78
2023/03/02 09:56:48;;;;;;;7.53;5.93;;;8.20;74.90;;;;;;5047724;28;20510;-78
2023/03/02 09:59:16;;;;;;;8.37;6.60;;;8.40;72.00;;;;;;5050381;28;20426;-78
2023/03/02 10:01:49;;;;;;;10.17;7.03;;;8.50;71.90;;;;;;5052352;28;20924;-77
2023/03/02 10:04:28;;;;;;;9.60;5.97;;;8.70;67.20;;;;;;5036013;28;20529;-77
2023/03/02 10:07:11;;;;;;;14.00;7.07;;;8.70;66.60;;;;;;5048808;28;20571;-77
2023/03/02 10:09:38;;;;;;;17.20;7.90;;;8.70;65.40;;;;;;5045736;28;20418;-78
2023/03/02 10:12:37;;;;;;;11.13;6.23;;;8.70;64.30;;;;;;5051254;28;20430;-77
2023/03/02 10:15:13;;;;;;;8.40;6.70;;;8.70;65.30;;;;;;5049348;28;20532;-77
2023/03/02 10:17:42;;;;;;;9.70;6.30;;;8.80;64.90;;;;;;5044502;28;20446;-76
2023/03/02 10:20:17;;;;;;;10.20;6.23;;;8.80;64.60;;;;;;5037517;28;20426;-77
2023/03/02 10:22:59;;;;;;;9.23;6.83;;;8.70;66.20;;;;;;5036906;28;20528;-78
2023/03/02 10:25:47;;;;;;;10.23;5.83;;;8.70;64.60;;;;;;5043414;28;20434;-77
2023/03/02 10:28:18;;;;;;;7.90;5.67;;;8.70;65.40;;;;;;5050249;28;20906;-77
2023/03/02 10:30:48;;;;;;;13.10;6.07;;;8.90;63.90;;;;;;5049823;28;20474;-77
2023/03/02 10:33:16;;;;;;;13.43;6.57;;;8.80;64.30;;;;;;5042454;28;20914;-75
2023/03/02 10:35:47;;;;;;;9.63;6.03;;;8.80;64.20;;;;;;5048127;28;20564;-76
2023/03/02 10:38:15;;;;;;;9.77;6.47;;;9.10;61.50;;;;;;5050057;28;20433;-75
2023/03/02 10:40:58;;;;;;;8.87;5.87;;;9.00;61.30;;;;;;5049699;28;20457;-75
2023/03/02 10:43:38;;;;;;;10.60;6.60;;;9.10;62.80;;;;;;5051216;28;20425;-75
2023/03/02 10:46:07;;;;;;;7.20;5.30;;;9.30;59.80;;;;;;5046375;28;20437;-76
2023/03/02 10:48:52;;;;;;;9.70;6.07;;;9.40;59.00;;;;;;5049175;28;20476;-85
2023/03/02 10:51:27;;;;;;;10.33;6.67;;;9.30;59.20;;;;;;5046091;28;20475;-78
2023/03/02 10:54:22;;;;;;;13.90;6.40;;;9.10;62.20;;;;;;5052028;28;20478;-77
2023/03/02 10:56:51;;;;;;;12.60;5.70;;;9.30;66.80;;;;;;5033251;28;20450;-77
2023/03/02 10:59:43;;;;;;;7.77;5.50;;;9.30;67.10;;;;;;5040124;28;20434;-75
2023/03/02 11:02:24;;;;;;;13.83;7.00;;;9.40;68.00;;;;;;5049557;28;20469;-75
2023/03/02 11:05:15;;;;;;;12.60;7.20;;;9.40;64.00;;;;;;5038936;28;20430;-74
2023/03/02 11:07:58;;;;;;;12.33;7.37;;;9.50;63.20;;;;;;5038520;28;20800;-75
2023/03/02 11:10:51;;;;;;;13.00;6.70;;;9.70;59.20;;;;;;5048893;28;20771;-75
2023/03/02 11:13:32;;;;;;;7.60;4.80;;;9.50;61.90;;;;;;5038167;28;20441;-75
2023/03/02 11:16:00;;;;;;;10.60;5.17;;;9.50;63.10;;;;;;5042802;28;20524;-75
2023/03/02 11:18:37;;;;;;;9.50;6.17;;;9.60;61.00;;;;;;5032991;28;20461;-75
2023/03/02 11:21:08;;;;;;;8.37;5.93;;;9.60;59.90;;;;;;5037420;28;20425;-75
2023/03/02 11:24:07;;;;;;;12.13;4.83;;;9.90;58.20;;;;;;5044255;28;20426;-76
2023/03/02 11:26:37;;;;;;;8.80;5.70;;;9.70;58.60;;;;;;5034145;28;20473;-75
2023/03/02 11:29:24;;;;;;;7.20;5.10;;;9.60;60.00;;;;;;5038406;28;20969;-75
2023/03/02 11:31:53;;;;;;;5.43;4.60;;;9.70;57.60;;;;;;5045377;28;20469;-74
2023/03/02 11:34:43;;;;;;;6.67;5.53;;;9.70;58.20;;;;;;5051016;28;20437;-75
2023/03/02 11:37:28;;;;;;;8.60;5.70;;;9.90;56.80;;;;;;5037478;28;20816;-76
2023/03/02 11:40:14;;;;;;;8.30;5.13;;;10.00;56.50;;;;;;5044654;28;20453;-76
2023/03/02 11:42:43;;;;;;;7.80;5.37;;;10.20;55.40;;;;;;5034989;28;20427;-76
2023/03/02 11:45:26;;;;;;;8.50;5.30;;;10.30;55.90;;;;;;5037904;28;20439;-76
2023/03/02 11:48:11;;;;;;;8.30;5.60;;;10.40;55.70;;;;;;5044445;28;20773;-76
2023/03/02 11:50:51;;;;;;;6.80;5.50;;;10.50;56.10;;;;;;5046561;28;20517;-76
2023/03/02 11:53:19;;;;;;;7.07;5.87;;;10.60;56.10;;;;;;5037015;28;20456;-76
2023/03/02 11:55:48;;;;;;;9.30;6.20;;;10.70;56.00;;;;;;5041999;28;20465;-76
2023/03/02 11:58:20;;;;;;;8.53;5.23;;;11.00;55.10;;;;;;5036237;28;20429;-76
2023/03/02 12:00:46;;;;;;;10.50;6.20;;;11.20;52.70;;;;;;5035529;28;20430;-76
2023/03/02 12:03:15;;;;;;;7.70;5.70;;;11.20;52.90;;;;;;5041277;28;20430;-76
2023/03/02 12:05:42;;;;;;;6.67;5.37;;;11.30;53.70;;;;;;5047238;28;20429;-77
2023/03/02 12:08:17;;;;;;;5.73;4.60;;;11.50;51.50;;;;;;5016782;28;20786;-77
2023/03/02 12:10:56;;;;;;;14.13;6.27;;;11.70;50.40;;;;;;5039138;28;20417;-77
2023/03/02 12:13:27;;;;;;;7.77;5.10;;;11.70;51.40;;;;;;5038945;28;20443;-77
2023/03/02 12:15:55;;;;;;;7.90;5.27;;;11.90;50.10;;;;;;5050573;28;20465;-77
2023/03/02 12:18:20;;;;;;;8.10;4.83;;;12.00;49.90;;;;;;5046298;28;20804;-77
2023/03/02 12:21:04;;;;;;;9.60;5.77;;;12.20;50.90;;;;;;5040874;28;20513;-77
2023/03/02 12:23:31;;;;;;;6.83;5.13;;;12.20;49.90;;;;;;5034380;28;20597;-77
2023/03/02 12:26:08;;;;;;;7.27;5.10;;;12.20;50.20;;;;;;5036116;28;20414;-78
2023/03/02 12:28:38;;;;;;;5.80;5.07;;;12.30;50.20;;;;;;5042099;28;20439;-78
2023/03/02 12:31:08;;;;;;;7.87;4.67;;;12.50;49.30;;;;;;5049145;28;21020;-76
2023/03/02 12:33:44;;;;;;;9.57;5.07;;;12.70;48.40;;;;;;5048155;28;20429;-77
2023/03/02 12:36:14;;;;;;;7.10;5.30;;;12.80;47.80;;;;;;5043582;28;20918;-77
2023/03/02 12:38:44;;;;;;;5.80;5.10;;;12.90;47.70;;;;;;5045559;28;20435;-78
2023/03/02 12:41:16;;;;;;;7.47;5.27;;;13.10;47.30;;;;;;5039446;28;20532;-78
2023/03/02 12:43:57;;;;;;;9.17;5.40;;;13.20;47.00;;;;;;5039098;28;20433;-77
2023/03/02 12:46:31;;;;;;;4.93;4.37;;;13.10;47.20;;;;;;5040910;28;20429;-78
2023/03/02 12:49:15;;;;;;;6.30;4.67;;;13.00;46.30;;;;;;5038731;28;20421;-78
2023/03/02 12:52:01;;;;;;;7.33;4.43;;;12.90;48.00;;;;;;5039141;28;20461;-78
2023/03/02 12:54:32;;;;;;;8.03;5.00;;;13.00;48.20;;;;;;5045829;28;20772;-77
2023/03/02 12:57:18;;;;;;;5.97;4.90;;;13.10;47.70;;;;;;5050541;28;20469;-77
2023/03/02 12:59:58;;;;;;;5.03;4.53;;;13.30;46.40;;;;;;5045154;28;20772;-78
2023/03/02 13:02:33;;;;;;;7.20;5.97;;;13.30;45.70;;;;;;5042473;28;20517;-78
2023/03/02 13:05:01;;;;;;;6.97;5.40;;;13.10;45.60;;;;;;5054253;28;20750;-78
2023/03/02 13:07:38;;;;;;;7.47;4.43;;;12.90;46.00;;;;;;5043131;28;20437;-78
2023/03/02 13:10:21;;;;;;;6.60;5.27;;;12.90;48.10;;;;;;5049484;28;20511;-77
2023/03/02 13:12:47;;;;;;;7.07;4.57;;;12.80;46.80;;;;;;5049764;28;20796;-78
2023/03/02 13:15:16;;;;;;;6.30;4.73;;;12.70;47.60;;;;;;5039815;28;20469;-80
2023/03/02 13:17:42;;;;;;;7.87;4.90;;;12.90;47.60;;;;;;5052717;28;21170;-79
2023/03/02 13:20:12;;;;;;;7.90;4.70;;;13.00;48.70;;;;;;5037238;28;20533;-80
2023/03/02 13:22:39;;;;;;;7.53;5.27;;;13.10;47.80;;;;;;5050463;28;20516;-80
2023/03/02 13:25:19;;;;;;;14.13;7.00;;;13.10;48.50;;;;;;5051872;28;20426;-79
2023/03/02 13:27:51;;;;;;;5.50;4.97;;;13.20;49.90;;;;;;5048474;28;20456;-79
2023/03/02 13:30:25;;;;;;;5.90;5.30;;;13.30;49.10;;;;;;5042257;28;20523;-75
2023/03/02 13:32:50;;;;;;;7.00;5.83;;;13.20;49.10;;;;;;5050163;28;20437;-82
2023/03/02 13:35:25;;;;;;;7.93;5.23;;;13.40;48.80;;;;;;5044529;28;20476;-81
2023/03/02 13:38:18;;;;;;;6.87;4.50;;;13.40;49.80;;;;;;5052368;28;20187;-85
2023/03/02 13:40:47;;;;;;;7.63;5.47;;;13.50;48.60;;;;;;5043372;28;20444;-80
2023/03/02 13:43:34;;;;;;;6.97;5.27;;;13.40;48.10;;;;;;5042043;28;20438;-80
2023/03/02 13:46:20;;;;;;;5.80;4.33;;;13.40;47.90;;;;;;5050339;28;20421;-80
2023/03/02 13:49:00;;;;;;;7.47;4.87;;;13.40;48.50;;;;;;5038727;28;20437;-80
2023/03/02 13:51:31;;;;;;;8.60;5.83;;;13.30;49.80;;;;;;5048918;28;20479;-80
2023/03/02 13:54:00;;;;;;;6.50;5.60;;;13.30;49.80;;;;;;5052884;28;20426;-80
2023/03/02 13:56:39;;;;;;;9.80;5.53;;;13.40;49.40;;;;;;5050393;28;20477;-82
2023/03/02 13:59:12;;;;;;;7.40;5.10;;;13.50;49.60;;;;;;5043751;28;20437;-81
2023/03/02 14:01:40;;;;;;;7.60;4.80;;;13.60;48.70;;;;;;5037287;28;20508;-80
2023/03/02 14:04:09;;;;;;;8.57;6.00;;;13.70;48.40;;;;;;5039446;28;20783;-78
2023/03/02 14:06:35;;;;;;;7.83;5.20;;;13.60;48.90;;;;;;5045223;28;20488;-78
2023/03/02 14:09:01;;;;;;;5.80;4.60;;;13.60;48.40;;;;;;5051892;28;20453;-78
2023/03/02 14:11:33;;;;;;;10.20;5.37;;;13.70;49.00;;;;;;5053000;28;20192;-78
2023/03/02 14:14:00;;;;;;;9.20;5.30;;;13.60;48.90;;;;;;5046721;28;20457;-78
2023/03/02 14:16:26;;;;;;;8.17;5.30;;;13.60;49.10;;;;;;5040889;28;20526;-78
2023/03/02 14:18:52;;;;;;;7.20;4.93;;;13.70;47.80;;;;;;5036173;28;20434;-78
2023/03/02 14:21:21;;;;;;;11.40;5.33;;;13.50;48.30;;;;;;5040802;28;20439;-78
2023/03/02 14:23:47;;;;;;;6.83;5.47;;;13.50;48.70;;;;;;5046759;28;20179;-78
2023/03/02 14:26:31;;;;;;;5.53;4.93;;;13.30;49.00;;;;;;5052666;28;20460;-78
2023/03/02 14:28:59;;;;;;;4.57;4.10;;;13.20;49.90;;;;;;5050082;28;20427;-78
2023/03/02 14:31:26;;;;;;;7.70;5.20;;;13.20;50.00;;;;;;5043527;28;20961;-78
2023/03/02 14:33:51;;;;;;;9.47;5.50;;;13.30;49.50;;;;;;5037862;28;21234;-77
2023/03/02 14:36:26;;;;;;;6.90;5.40;;;13.20;49.40;;;;;;5036459;28;20481;-79
2023/03/02 14:38:52;;;;;;;10.47;5.40;;;13.00;49.50;;;;;;5045183;28;20667;-79
2023/03/02 14:41:21;;;;;;;7.17;5.30;;;13.00;50.90;;;;;;5039573;28;20438;-78
2023/03/02 14:43:47;;;;;;;6.73;5.70;;;13.00;50.50;;;;;;5052276;28;20180;-78
2023/03/02 14:46:13;;;;;;;6.03;5.43;;;13.00;50.70;;;;;;5041607;28;20439;-78
2023/03/02 14:48:38;;;;;;;6.30;5.20;;;13.10;50.80;;;;;;5046916;28;20187;-78
2023/03/02 14:51:12;;;;;;;9.00;5.20;;;13.20;50.80;;;;;;5046734;28;20591;-79
2023/03/02 14:53:38;;;;;;;5.37;4.63;;;13.20;49.70;;;;;;5047572;28;20248;-78
2023/03/02 14:56:06;;;;;;;6.87;4.83;;;13.20;50.00;;;;;;5047543;28;20477;-81
2023/03/02 14:58:33;;;;;;;7.60;4.87;;;13.00;51.30;;;;;;5037464;28;20194;-93
2023/03/02 15:00:59;;;;;;;16.70;6.57;;;12.90;51.30;;;;;;5035690;28;20454;-83
2023/03/02 15:03:25;;;;;;;7.37;4.97;;;12.90;54.40;;;;;;5046032;28;20441;-85
2023/03/02 15:05:52;;;;;;;7.90;6.10;;;12.90;52.60;;;;;;5045967;28;20476;-86
2023/03/02 15:08:19;;;;;;;8.33;5.33;;;12.90;52.60;;;;;;5042538;28;20444;-84
2023/03/02 15:10:45;;;;;;;7.63;6.10;;;12.90;52.30;;;;;;5039215;28;20478;-83
2023/03/02 15:13:15;;;;;;;10.17;7.20;;;13.00;52.80;;;;;;5046931;28;20434;-84